ADDS TAF Board (Experimental) INFO

IDs: Format: Expanded Condensed

Updated at: 1757 UTC 21 Dec 2014

KSLC - Salt Lake City Intl, UT, US

Issued at 1728 UTC 21 Dec 2014
Time1753Z21/18Z21/19Z21/20Z21/21Z21/22Z21/23Z22/00Z22/01Z22/02Z22/03Z22/04Z22/05Z22/06Z
TypeOBSPRVLPRVLPRVLPRVLPRVLPRVLPRVLPRVLPRVLPRVLPRVLPRVLPRVL
VIS76666666>6>6>6>6>6>6
CIG3235353535353535353535353535
CoverOVCOVCOVCOVCOVCOVCOVCOVCOVCOVCOVCOVCOVCOVC
FltCatVFRVFRVFRVFRVFRVFRVFRVFRVFRVFRVFRVFRVFRVFR
WX-RA-RA-RA-RA-RA-RA-RA-RAVCSHVCSHVCSHVCSHVCSHVCSH
WDir170170170170170170170170300300300300300300
WSpd1412121212121212101010101010
WGst2022222222222222------------
R14/32
XWnd-4-4-4-4-4-4-4-4-5-5-5-5-5-5
XGst-6-6-6-6-6-6-6-6------------
HWnd1311111111111111-8-8-8-8-8-8
HGst1921212121212121------------
R16/34
XWnd11111111-8-8-8-8-8-8
XGst22222222------------
HWnd1412121212121212-6-6-6-6-6-6
HGst2022222222222222------------
R17/35
XWnd22222222-9-9-9-9-9-9
XGst34444444------------
HWnd1412121212121212-5-5-5-5-5-5
HGst2022222222222222------------
RHB/18
XWnd-2-2-2-2-2-2-2-2999999
XGst-3-4-4-4-4-4-4-4------------
HWnd-14-12-12-12-12-12-12-12555555
HGst-20-22-22-22-22-22-22-22------------
Raw TAF
KSLC 211728Z 2118/2224 17012G22KT 6SM -RA SCT020 OVC035 WS020/30025KT
  FM220100 30010KT P6SM VCSH SCT015 OVC035
  FM221600 32012G18KT P6SM SCT030 BKN080


Raw METAR
KSLC 211753Z 17014G20KT 7SM -RA OVC032 04/03 A2999 RMK AO2 SLP151 P0007 60035 T00440028 10050 20033 53004
KSLC 211653Z 15011KT 6SM RA BR OVC035 04/03 A2999 RMK AO2 SLP151 P0007 T00390028

TAF Board Legend

Hazard VFR MVFR IFR LIFR
Visibility (sm) >5 3≤X≤5 1≤X<3 <1
Ceiling (100 ft) >30 10≤X≤30 5≤X<10 <5
Wind Speed (kt) <10 10≤X<20 20≤X<30 ≥30
Wind Gust (kt) <15 15≤X<25 25≤X<35 ≥35
Weather No Wx Reported VCTS,-TS,-FZRA TS,FZRA +TS,+FZRA


Page loaded:  17:57 UTC  |   09:57 AM Pacific  |   10:57 AM Mountain  |   11:57 AM Central  |   12:57 PM Eastern

 

ADVISORIES

FORECASTS

FORECASTS

OBSERVATIONS

USER TOOLS

ABOUT US